Time;durP1;ratioP1;P1;durP2;ratioP2;P2;SDS_P1;SDS_P2;PMS_P1;PMS_P2;Temp;Humidity;BMP_temperature;BMP_pressure;BME280_temperature;BME280_humidity;BME280_pressure;Samples;Min_cycle;Max_cycle;Signal;HPM_P1;HPM_P2
2024/01/23 00:01:31;;;;;;;55.20;25.55;;;;;;;29.04;70.01;101313.16;5042533;28;68831;-40
2024/01/23 00:04:01;;;;;;;64.93;26.02;;;;;;;29.16;72.34;101322.38;5044494;28;66562;-40
2024/01/23 00:06:32;;;;;;;71.30;31.42;;;;;;;29.15;72.84;101331.50;5060303;28;70720;-38
2024/01/23 00:09:04;;;;;;;74.05;35.53;;;;;;;29.06;71.64;101329.97;5047788;28;66792;-39
2024/01/23 00:11:35;;;;;;;92.00;40.05;;;;;;;28.98;72.43;101340.91;5052177;28;69673;-38
2024/01/23 00:14:06;;;;;;;82.43;40.83;;;;;;;28.91;72.77;101349.78;5057329;28;65320;-39
2024/01/23 00:16:37;;;;;;;80.30;38.90;;;;;;;28.94;71.41;101357.50;5043226;28;70114;-40
2024/01/23 00:19:07;;;;;;;79.65;37.20;;;;;;;28.92;72.80;101356.03;5043386;28;66047;-40
2024/01/23 00:21:38;;;;;;;72.45;35.47;;;;;;;28.98;73.77;101354.44;5042038;28;70510;-40
2024/01/23 00:24:09;;;;;;;70.45;33.35;;;;;;;29.06;74.55;101349.75;5030050;28;67112;-38
2024/01/23 00:26:40;;;;;;;68.28;33.63;;;;;;;29.14;74.87;101352.28;5043165;28;70027;-40
2024/01/23 00:29:11;;;;;;;70.03;33.60;;;;;;;29.17;74.01;101346.50;5032231;28;66186;-38
2024/01/23 00:31:42;;;;;;;66.53;33.03;;;;;;;29.16;73.29;101350.19;5041979;28;71167;-37
2024/01/23 00:34:13;;;;;;;68.00;30.83;;;;;;;29.13;72.91;101353.31;5056807;28;65689;-37
2024/01/23 00:36:44;;;;;;;60.13;30.58;;;;;;;29.15;72.80;101353.13;5041174;28;69722;-41
2024/01/23 00:39:15;;;;;;;65.45;30.25;;;;;;;29.15;73.05;101361.22;5043817;28;66969;-39
2024/01/23 00:41:46;;;;;;;60.28;29.23;;;;;;;29.15;72.65;101362.06;5048090;28;70298;-41
2024/01/23 00:44:16;;;;;;;70.43;30.00;;;;;;;29.17;74.15;101361.88;5050378;28;66421;-42
2024/01/23 00:46:47;;;;;;;54.03;29.50;;;;;;;29.23;73.70;101366.47;5044475;28;70835;-43
2024/01/23 00:49:18;;;;;;;60.72;27.65;;;;;;;29.31;73.98;101373.56;5050282;28;66865;-41
2024/01/23 00:51:49;;;;;;;54.05;28.20;;;;;;;29.32;73.44;101370.69;5058744;28;70109;-41
2024/01/23 00:54:19;;;;;;;54.83;26.65;;;;;;;29.31;74.25;101369.03;5061176;28;66673;-41
2024/01/23 00:56:50;;;;;;;45.88;25.98;;;;;;;29.41;70.30;101371.34;5040913;28;71087;-42
2024/01/23 00:59:21;;;;;;;40.58;23.50;;;;;;;29.37;69.84;101378.22;5037808;28;66737;-42
2024/01/23 01:01:52;;;;;;;31.37;22.00;;;;;;;29.33;69.28;101372.34;5043059;28;69447;-41
2024/01/23 01:04:24;;;;;;;30.73;21.43;;;;;;;29.38;69.05;101379.88;5040620;28;66300;-42
2024/01/23 01:06:55;;;;;;;32.80;21.20;;;;;;;29.42;69.25;101380.31;5041140;28;70053;-41
2024/01/23 01:09:26;;;;;;;39.27;22.77;;;;;;;29.42;69.46;101386.56;5032966;28;65547;-41
2024/01/23 01:11:57;;;;;;;27.83;20.42;;;;;;;29.47;68.78;101383.25;5056328;28;69573;-41
2024/01/23 01:14:28;;;;;;;26.45;20.13;;;;;;;29.46;68.63;101385.13;5055152;28;65981;-42
2024/01/23 01:16:59;;;;;;;30.92;20.48;;;;;;;29.50;68.89;101388.25;5047047;28;69857;-40
2024/01/23 01:19:30;;;;;;;32.53;19.77;;;;;;;29.50;68.48;101388.25;5031519;28;65841;-41
2024/01/23 01:22:02;;;;;;;25.75;20.17;;;;;;;29.54;69.05;101390.38;5050871;28;71205;-42
2024/01/23 01:24:33;;;;;;;27.98;20.20;;;;;;;29.54;68.91;101400.34;5055001;28;66188;-41
2024/01/23 01:27:04;;;;;;;32.05;21.15;;;;;;;29.49;68.73;101382.00;5055433;28;70140;-44
2024/01/23 01:29:35;;;;;;;33.27;20.53;;;;;;;29.58;68.88;101398.91;5046064;28;65871;-41
2024/01/23 01:32:06;;;;;;;26.77;20.00;;;;;;;29.60;68.20;101404.97;5068395;28;70666;-39
2024/01/23 01:34:37;;;;;;;30.60;21.10;;;;;;;29.53;68.45;101394.13;5057707;28;65793;-42
2024/01/23 01:37:08;;;;;;;36.92;21.00;;;;;;;29.59;68.37;101404.13;5053762;28;70919;-44
2024/01/23 01:39:39;;;;;;;28.23;19.60;;;;;;;29.63;68.72;101410.00;5054996;28;66870;-41
2024/01/23 01:42:10;;;;;;;25.05;19.88;;;;;;;29.65;68.85;101413.34;5061250;28;71209;-41
2024/01/23 01:44:42;;;;;;;28.48;20.42;;;;;;;29.61;68.70;101402.06;5058580;28;66799;-41
2024/01/23 01:47:13;;;;;;;27.05;19.45;;;;;;;29.66;68.34;101409.59;5057045;28;68919;-41
2024/01/23 01:49:44;;;;;;;25.08;19.23;;;;;;;29.71;68.66;101415.25;5046385;28;66384;-41
2024/01/23 01:52:16;;;;;;;25.17;19.23;;;;;;;29.70;68.61;101410.00;5038033;28;69733;-41
2024/01/23 01:54:48;;;;;;;26.23;20.05;;;;;;;29.71;68.69;101423.34;5036217;28;65414;-41
2024/01/23 01:57:22;;;;;;;30.58;19.90;;;;;;;29.27;68.79;101337.19;5034798;28;69802;-40
2024/01/23 01:59:53;;;;;;;24.13;19.13;;;;;;;29.75;68.50;101419.19;5041976;28;66150;-41
2024/01/23 02:02:24;;;;;;;21.33;18.52;;;;;;;29.61;68.82;101390.38;5047722;28;71515;-41
2024/01/23 02:04:55;;;;;;;28.48;18.02;;;;;;;29.75;68.56;101410.25;5050552;28;66709;-41
2024/01/23 02:07:26;;;;;;;24.00;18.08;;;;;;;29.79;68.31;101415.06;5046369;28;70649;-42
2024/01/23 02:09:57;;;;;;;22.57;18.23;;;;;;;29.74;68.35;101406.72;5050927;28;65669;-41
2024/01/23 02:12:29;;;;;;;24.25;18.77;;;;;;;29.73;68.24;101399.66;5037924;28;70885;-42
2024/01/23 02:14:59;;;;;;;19.93;17.60;;;;;;;29.82;68.13;101417.38;5049033;28;65801;-43
2024/01/23 02:17:31;;;;;;;19.98;17.00;;;;;;;29.79;68.56;101403.44;5047301;28;70301;-41
2024/01/23 02:20:05;;;;;;;22.13;17.05;;;;;;;29.84;68.38;101414.47;5043593;28;66823;-42
2024/01/23 02:22:36;;;;;;;21.45;17.25;;;;;;;29.86;68.07;101414.28;5046034;28;70918;-41
2024/01/23 02:25:07;;;;;;;22.25;16.60;;;;;;;29.82;68.35;101403.84;5047538;28;66901;-41
2024/01/23 02:27:38;;;;;;;21.00;16.73;;;;;;;29.88;68.10;101418.44;5051216;28;70044;-41
2024/01/23 02:30:09;;;;;;;21.40;17.35;;;;;;;29.94;68.32;101419.50;5060289;28;66989;-41
2024/01/23 02:32:48;;;;;;;22.47;17.10;;;;;;;29.82;68.32;101403.84;5053330;28;69366;-42
2024/01/23 02:35:19;;;;;;;22.90;17.08;;;;;;;29.95;68.41;101413.91;5042462;28;66869;-41
2024/01/23 02:37:51;;;;;;;21.42;16.83;;;;;;;29.90;68.34;101404.72;5057804;28;70178;-41
2024/01/23 02:40:21;;;;;;;23.47;17.73;;;;;;;29.97;67.93;101408.28;5063669;28;65113;-41
2024/01/23 02:42:53;;;;;;;20.10;16.83;;;;;;;30.00;68.31;101405.16;5058857;28;70195;-41
2024/01/23 02:45:24;;;;;;;24.42;16.95;;;;;;;29.95;68.04;101392.28;5053691;28;65995;-41
2024/01/23 02:47:55;;;;;;;20.40;16.73;;;;;;;29.99;67.94;101398.09;5055030;28;69909;-41
2024/01/23 02:50:28;;;;;;;23.47;16.83;;;;;;;30.01;68.47;101390.63;5049499;28;66993;-40
2024/01/23 02:52:59;;;;;;;22.58;16.38;;;;;;;30.07;68.37;101400.63;5055082;28;70366;-40
2024/01/23 02:55:30;;;;;;;20.23;15.82;;;;;;;30.06;68.34;101391.69;5059929;28;67335;-41
2024/01/23 02:58:01;;;;;;;21.15;16.15;;;;;;;30.09;68.06;101387.75;5064804;28;70044;-41
2024/01/23 03:00:40;;;;;;;19.70;15.57;;;;;;;30.12;67.68;101387.34;5052837;28;65523;-40
2024/01/23 03:03:12;;;;;;;24.25;16.13;;;;;;;30.03;67.88;101366.88;5062984;28;68502;-40
2024/01/23 03:05:43;;;;;;;17.63;15.82;;;;;;;30.13;67.83;101378.19;5047676;28;65847;-41
2024/01/23 03:08:22;;;;;;;17.85;15.95;;;;;;;30.20;67.95;101373.63;5041362;28;69227;-41
2024/01/23 03:10:53;;;;;;;17.80;15.95;;;;;;;30.20;67.67;101368.22;5045912;28;66432;-42
2024/01/23 03:13:26;;;;;;;17.27;15.65;;;;;;;30.22;67.51;101360.75;5046118;28;69278;-42
2024/01/23 03:15:57;;;;;;;17.50;15.63;;;;;;;30.14;68.09;101341.94;5057335;28;66185;-42
2024/01/23 03:18:34;;;;;;;21.05;16.30;;;;;;;30.20;67.60;101346.56;5049578;28;69382;-42
2024/01/23 03:21:08;;;;;;;20.63;16.15;;;;;;;30.28;68.09;101354.53;5045911;28;65453;-41
2024/01/23 03:23:52;;;;;;;18.80;14.98;;;;;;;30.26;67.75;101340.38;5069514;28;70602;-42
2024/01/23 03:26:28;;;;;;;18.25;15.65;;;;;;;30.32;67.56;101338.72;5063185;28;65803;-41
2024/01/23 03:29:04;;;;;;;22.50;15.88;;;;;;;30.34;67.87;101333.06;5053869;28;43419;-40
2024/01/23 03:31:41;;;;;;;19.42;15.55;;;;;;;30.37;67.68;101335.38;5049480;28;66640;-41
2024/01/23 03:34:18;;;;;;;16.50;14.82;;;;;;;30.38;68.04;101326.22;5045203;28;70157;-42
2024/01/23 03:36:54;;;;;;;17.08;15.43;;;;;;;30.36;67.79;101315.59;5047563;28;65960;-41
2024/01/23 03:39:32;;;;;;;20.75;15.75;;;;;;;30.40;67.62;101316.03;5045972;28;69772;-41
2024/01/23 03:42:16;;;;;;;16.35;14.82;;;;;;;30.42;67.32;101311.22;5047746;28;65363;-43
2024/01/23 03:44:50;;;;;;;16.50;14.82;;;;;;;30.45;67.55;101308.09;5036632;28;70364;-41
2024/01/23 03:47:28;;;;;;;15.88;14.20;;;;;;;30.49;67.42;101312.91;5043421;28;66094;-42
2024/01/23 03:50:05;;;;;;;16.45;14.73;;;;;;;30.54;67.47;101298.75;5071006;28;70164;-41
2024/01/23 03:52:47;;;;;;;16.75;13.90;;;;;;;30.45;67.43;101279.19;5050472;28;66073;-41
2024/01/23 03:55:25;;;;;;;16.27;14.45;;;;;;;30.28;67.52;101243.56;5040299;28;70911;-42
2024/01/23 03:58:05;;;;;;;14.93;13.38;;;;;;;30.55;67.48;101280.63;5039122;28;65732;-41
2024/01/23 04:00:36;;;;;;;18.77;14.70;;;;;;;30.48;67.12;101267.94;5041739;28;69278;-40
2024/01/23 04:03:15;;;;;;;15.32;14.02;;;;;;;30.64;67.09;101288.31;5041993;28;66611;-42
2024/01/23 04:05:55;;;;;;;16.52;14.77;;;;;;;30.62;67.25;101263.34;5057452;28;68837;-41
2024/01/23 04:08:54;;;;;;;18.20;15.35;;;;;;;30.61;67.37;101274.38;5037288;28;66642;-41
2024/01/23 04:11:29;;;;;;;16.07;14.43;;;;;;;30.69;67.36;101266.84;5041586;28;69530;-41
2024/01/23 04:14:20;;;;;;;15.40;13.80;;;;;;;30.72;67.42;101269.16;5041535;28;66304;-41
2024/01/23 04:17:05;;;;;;;15.50;13.90;;;;;;;30.75;67.00;101276.03;5019578;28;70109;-41
2024/01/23 04:19:37;;;;;;;16.33;14.70;;;;;;;30.76;66.74;101253.34;5026149;28;66075;-41
2024/01/23 04:22:11;;;;;;;15.90;13.73;;;;;;;30.75;66.70;101240.00;5041640;28;70721;-42
2024/01/23 04:24:42;;;;;;;15.75;14.20;;;;;;;30.81;67.25;101244.59;5035507;28;66902;-40
2024/01/23 04:27:15;;;;;;;15.15;13.82;;;;;;;30.85;67.00;101246.66;5036869;28;70950;-41
2024/01/23 04:29:49;;;;;;;15.63;13.68;;;;;;;30.85;66.78;101235.84;5043569;28;66622;-43
2024/01/23 04:32:20;;;;;;;14.95;13.35;;;;;;;30.90;66.74;101232.50;5052556;28;70307;-41
2024/01/23 04:34:51;;;;;;;14.77;13.23;;;;;;;30.83;67.06;101220.84;5049997;28;66599;-43
2024/01/23 04:37:22;;;;;;;15.07;13.88;;;;;;;30.90;66.71;101225.19;5045021;28;70851;-41
2024/01/23 04:39:53;;;;;;;19.02;14.82;;;;;;;30.81;66.47;101201.25;5044864;28;66821;-43
2024/01/23 04:42:24;;;;;;;16.45;14.75;;;;;;;30.94;67.01;101218.31;5046206;28;70273;-41
2024/01/23 04:44:54;;;;;;;18.08;13.55;;;;;;;30.98;66.75;101210.59;5062211;28;66591;-41
2024/01/23 04:47:26;;;;;;;14.05;12.63;;;;;;;30.98;66.45;101201.63;5069263;28;69512;-40
2024/01/23 04:49:57;;;;;;;16.10;13.53;;;;;;;30.90;66.53;101194.59;5043557;28;66777;-39
2024/01/23 04:52:27;;;;;;;16.33;14.18;;;;;;;31.03;66.62;101199.09;5029105;28;70253;-41
2024/01/23 04:54:58;;;;;;;14.20;12.95;;;;;;;31.05;66.42;101202.44;5042802;28;66846;-41
2024/01/23 04:57:32;;;;;;;15.52;13.77;;;;;;;31.02;66.56;101186.63;5045019;28;70733;-41
2024/01/23 05:00:04;;;;;;;15.05;13.55;;;;;;;31.08;66.37;101189.28;5013570;28;65150;-41
2024/01/23 05:02:35;;;;;;;13.73;12.48;;;;;;;31.11;66.47;101174.47;5040319;28;70121;-43
2024/01/23 05:05:06;;;;;;;15.00;13.57;;;;;;;31.12;66.23;101174.28;5045842;28;66652;-42
2024/01/23 05:07:37;;;;;;;15.13;13.45;;;;;;;31.09;66.27;101171.16;5063857;28;69693;-39
2024/01/23 05:10:09;;;;;;;14.38;13.02;;;;;;;31.15;65.95;101163.00;5029738;28;66002;-41
2024/01/23 05:12:39;;;;;;;13.40;12.03;;;;;;;31.12;66.50;101159.88;5055158;28;70042;-40
2024/01/23 05:15:10;;;;;;;13.00;11.77;;;;;;;31.19;66.32;101159.88;5049026;28;65901;-43
2024/01/23 05:17:42;;;;;;;13.98;12.77;;;;;;;31.15;66.15;101132.38;5058606;28;69917;-40
2024/01/23 05:20:13;;;;;;;14.18;12.38;;;;;;;31.22;66.14;101143.16;5059759;28;66484;-41
2024/01/23 05:22:43;;;;;;;14.93;13.43;;;;;;;31.24;65.63;101146.50;5044102;28;70529;-41
2024/01/23 05:25:16;;;;;;;13.63;12.35;;;;;;;31.27;65.70;101135.22;5035730;28;66114;-42
2024/01/23 05:27:47;;;;;;;19.70;13.10;;;;;;;31.26;65.83;101128.13;5036349;28;69804;-42
2024/01/23 05:30:19;;;;;;;12.27;11.18;;;;;;;31.26;65.75;101128.13;5034913;28;65675;-42
2024/01/23 05:32:51;;;;;;;12.13;11.23;;;;;;;31.20;65.58;101113.56;5040006;28;70705;-41
2024/01/23 05:35:22;;;;;;;15.50;13.15;;;;;;;31.30;65.97;101110.41;5038440;28;66359;-43
2024/01/23 05:37:52;;;;;;;13.20;12.00;;;;;;;31.35;65.73;101116.81;5025523;28;69610;-41
2024/01/23 05:40:23;;;;;;;12.97;11.83;;;;;;;31.34;65.59;101104.31;5034175;28;66409;-42
2024/01/23 05:42:54;;;;;;;12.60;11.50;;;;;;;31.34;65.60;101087.22;5031389;28;70095;-40
2024/01/23 05:45:25;;;;;;;12.02;11.07;;;;;;;31.41;65.62;101096.19;5041546;28;66849;-43
2024/01/23 05:47:56;;;;;;;13.68;12.32;;;;;;;31.44;65.57;101087.59;5029318;28;70008;-42
2024/01/23 05:50:27;;;;;;;13.93;11.93;;;;;;;31.46;65.53;101084.69;5035127;28;66673;-39
2024/01/23 05:52:58;;;;;;;14.35;11.55;;;;;;;31.48;65.18;101078.00;5033438;28;69929;-43
2024/01/23 05:55:28;;;;;;;13.38;12.00;;;;;;;31.51;65.32;101085.69;5035367;28;66079;-41
2024/01/23 05:57:59;;;;;;;12.80;11.68;;;;;;;31.53;65.29;101080.84;5037412;28;70575;-42
2024/01/23 06:00:30;;;;;;;12.93;11.93;;;;;;;31.54;65.19;101066.25;5045401;28;66478;-41
2024/01/23 06:03:01;;;;;;;13.50;12.00;;;;;;;31.52;65.08;101051.25;5046390;28;70426;-41
2024/01/23 06:05:31;;;;;;;13.27;11.98;;;;;;;31.60;65.02;101062.66;5036772;28;66661;-43
2024/01/23 06:08:03;;;;;;;12.30;11.20;;;;;;;31.61;64.86;101050.75;5029359;28;70143;-44
2024/01/23 06:10:35;;;;;;;13.38;12.20;;;;;;;31.61;65.01;101039.91;5008933;28;66216;-43
2024/01/23 06:13:06;;;;;;;12.88;11.88;;;;;;;31.65;64.72;101034.88;5022568;28;69687;-42
2024/01/23 06:15:36;;;;;;;13.32;11.93;;;;;;;31.67;64.99;101026.50;5063018;28;67044;-42
2024/01/23 06:18:08;;;;;;;11.63;10.68;;;;;;;31.48;64.86;100993.09;5056785;28;69094;-43
2024/01/23 06:20:39;;;;;;;15.05;11.60;;;;;;;31.70;64.83;101015.22;5058111;28;66622;-41
2024/01/23 06:23:09;;;;;;;12.40;11.27;;;;;;;31.75;64.80;101007.25;5050635;28;70324;-41
2024/01/23 06:25:40;;;;;;;11.47;10.50;;;;;;;31.77;64.65;101007.88;5058048;28;66523;-41
2024/01/23 06:28:11;;;;;;;12.07;11.02;;;;;;;31.76;64.64;101003.47;5075628;28;69219;-42
2024/01/23 06:30:42;;;;;;;11.50;10.60;;;;;;;31.81;64.66;100996.31;5058666;28;65710;-41
2024/01/23 06:33:13;;;;;;;13.00;11.90;;;;;;;31.74;64.57;100978.47;5074772;28;70458;-42
2024/01/23 06:35:46;;;;;;;11.85;10.95;;;;;;;31.82;64.60;100992.56;5041138;28;64673;-40
2024/01/23 06:38:17;;;;;;;11.38;10.32;;;;;;;31.85;64.48;100980.44;5053373;28;71397;-42
2024/01/23 06:40:47;;;;;;;11.18;10.35;;;;;;;31.93;64.18;100982.91;5054666;28;66792;-42
2024/01/23 06:43:19;;;;;;;;;;;;;;;31.72;63.98;100980.56;5037492;28;69836;-41
2024/01/23 06:45:49;;;;;;;12.00;10.90;;;;;;;31.87;64.32;100962.03;5074696;28;65999;-41
2024/01/23 06:48:20;;;;;;;11.47;10.37;;;;;;;31.94;64.13;100972.88;5059124;28;70737;-41
2024/01/23 06:50:51;;;;;;;11.75;10.60;;;;;;;31.80;63.87;100928.75;5060358;28;66605;-40
2024/01/23 06:53:22;;;;;;;11.30;10.35;;;;;;;31.88;64.02;100947.44;5057481;28;69691;-43
2024/01/23 06:55:53;;;;;;;10.98;10.18;;;;;;;32.06;64.09;100954.78;5047671;28;65570;-41
2024/01/23 06:58:23;;;;;;;11.35;10.52;;;;;;;32.06;63.89;100952.06;5039789;28;69672;-41
2024/01/23 07:00:54;;;;;;;11.77;10.57;;;;;;;32.11;64.04;100951.38;5037779;28;66984;-42
2024/01/23 07:03:25;;;;;;;12.43;10.50;;;;;;;32.11;63.82;100944.06;5019968;28;69795;-41
2024/01/23 07:05:56;;;;;;;10.07;9.47;;;;;;;32.13;63.96;100938.44;5035986;28;65743;-43
2024/01/23 07:08:29;;;;;;;11.55;10.40;;;;;;;32.10;63.60;100930.75;5036553;28;69622;-43
2024/01/23 07:11:01;;;;;;;10.98;10.18;;;;;;;32.21;63.63;100940.84;5039535;28;65956;-42
2024/01/23 07:13:32;;;;;;;11.00;10.05;;;;;;;32.23;63.70;100938.69;5048753;28;68894;-42
2024/01/23 07:16:03;;;;;;;10.25;9.40;;;;;;;32.25;63.89;100936.59;5051734;28;66269;-43
2024/01/23 07:18:33;;;;;;;11.43;10.45;;;;;;;32.18;63.40;100919.56;5055874;28;70194;-43
2024/01/23 07:21:05;;;;;;;10.20;9.38;;;;;;;32.31;63.57;100930.25;5070916;28;66068;-41
2024/01/23 07:23:36;;;;;;;10.70;9.75;;;;;;;32.31;63.50;100921.28;5071899;28;70782;-42
2024/01/23 07:26:07;;;;;;;;;;;;;;;32.14;62.80;100923.78;5032798;28;66095;-41
2024/01/23 07:28:39;;;;;;;10.60;9.75;;;;;;;32.32;63.25;100915.63;5046311;28;70711;-41
2024/01/23 07:31:30;;;;;;;10.68;9.85;;;;;;;32.37;63.37;100923.91;5060071;28;66447;-42
2024/01/23 07:34:01;;;;;;;11.27;9.77;;;;;;;32.38;63.27;100911.19;5062705;28;69723;-41
2024/01/23 07:36:32;;;;;;;11.13;10.02;;;;;;;32.40;63.11;100912.59;5047654;28;66310;-42
2024/01/23 07:39:05;;;;;;;10.75;9.75;;;;;;;32.43;62.85;100909.44;5065007;28;70042;-40
2024/01/23 07:41:37;;;;;;;9.05;8.45;;;;;;;32.51;62.95;100912.88;5037295;28;66290;-43
2024/01/23 07:44:08;;;;;;;10.40;9.60;;;;;;;32.43;62.92;100893.13;5032509;28;70221;-41
2024/01/23 07:46:39;;;;;;;10.80;9.82;;;;;;;32.55;63.02;100905.94;5038332;28;65556;-43
2024/01/23 07:49:09;;;;;;;10.10;9.20;;;;;;;32.60;63.01;100911.53;5039697;28;69457;-42
2024/01/23 07:51:51;;;;;;;10.63;9.73;;;;;;;32.57;61.80;100907.38;5043372;28;66153;-43
2024/01/23 07:54:22;;;;;;;10.77;10.00;;;;;;;32.63;63.07;100911.06;5058489;28;70354;-42
2024/01/23 07:56:53;;;;;;;9.30;8.57;;;;;;;32.66;62.55;100916.03;5039607;28;66383;-41
2024/01/23 07:59:24;;;;;;;9.93;9.33;;;;;;;32.67;62.54;100912.22;5037484;28;70467;-42
2024/01/23 08:01:54;;;;;;;10.27;9.48;;;;;;;32.73;62.64;100916.72;5041472;28;66341;-39
2024/01/23 08:04:25;;;;;;;9.30;8.65;;;;;;;32.75;62.50;100911.91;5027695;28;70747;-43
2024/01/23 08:06:56;;;;;;;10.48;9.75;;;;;;;32.71;62.55;100910.72;5032366;28;66197;-41
2024/01/23 08:09:27;;;;;;;10.32;9.23;;;;;;;32.79;62.49;100914.97;5040630;28;70219;-42
2024/01/23 08:11:59;;;;;;;10.20;9.40;;;;;;;32.81;62.19;100918.28;5025793;28;66006;-40
2024/01/23 08:14:29;;;;;;;10.88;9.73;;;;;;;32.85;62.42;100922.22;5045511;28;69086;-41
2024/01/23 08:17:01;;;;;;;10.00;9.30;;;;;;;32.82;62.17;100909.06;5038358;28;65875;-42
2024/01/23 08:19:32;;;;;;;10.30;9.27;;;;;;;32.85;62.26;100904.03;5050008;28;69358;-41
2024/01/23 08:22:04;;;;;;;11.00;9.67;;;;;;;32.92;62.04;100925.66;5036129;28;66610;-42
2024/01/23 08:24:35;;;;;;;14.52;9.43;;;;;;;32.96;62.15;100917.84;5041245;28;70227;-42
2024/01/23 08:27:06;;;;;;;10.63;9.00;;;;;;;32.99;62.00;100914.66;5045275;28;65319;-40
2024/01/23 08:29:37;;;;;;;9.68;8.73;;;;;;;33.03;62.00;100929.47;5031565;28;69362;-43
2024/01/23 08:32:07;;;;;;;10.07;9.07;;;;;;;33.04;61.90;100917.53;5042356;28;66016;-41
2024/01/23 08:34:39;;;;;;;9.35;8.63;;;;;;;33.08;61.89;100926.88;5042767;28;69603;-41
2024/01/23 08:37:11;;;;;;;9.27;8.35;;;;;;;33.00;61.76;100913.66;5044236;28;65452;-41
2024/01/23 08:39:42;;;;;;;8.68;7.95;;;;;;;32.91;61.83;100907.69;5036971;28;70679;-41
2024/01/23 08:42:13;;;;;;;9.55;8.27;;;;;;;33.08;62.22;100929.59;5042729;28;65796;-43
2024/01/23 08:44:47;;;;;;;10.55;8.95;;;;;;;33.08;61.92;100925.00;5037000;28;70080;-40
2024/01/23 08:47:17;;;;;;;8.43;7.82;;;;;;;33.07;61.90;100922.50;5044329;28;65694;-42
2024/01/23 08:49:48;;;;;;;9.10;7.85;;;;;;;33.09;61.80;100932.06;5042440;28;69850;-42
2024/01/23 08:52:19;;;;;;;8.33;7.63;;;;;;;33.13;61.90;100937.88;5050606;28;66610;-41
2024/01/23 08:54:51;;;;;;;8.45;7.68;;;;;;;33.15;61.76;100946.63;5040122;28;70077;-41
2024/01/23 08:57:23;;;;;;;8.52;7.72;;;;;;;33.18;61.71;100943.44;5058854;28;65805;-41
2024/01/23 08:59:54;;;;;;;8.77;8.07;;;;;;;33.20;61.57;100938.59;5047641;28;69904;-42
2024/01/23 09:02:26;;;;;;;8.50;7.27;;;;;;;33.12;61.43;100928.06;5054863;28;67481;-43
2024/01/23 09:04:57;;;;;;;8.75;7.90;;;;;;;33.15;61.36;100935.75;5040884;28;70147;-44
2024/01/23 09:07:28;;;;;;;8.70;8.07;;;;;;;33.26;61.45;100959.41;5041238;28;66460;-41
2024/01/23 09:09:59;;;;;;;8.85;6.78;;;;;;;33.27;61.27;100955.63;5061081;28;70202;-42
2024/01/23 09:12:33;;;;;;;8.10;7.30;;;;;;;33.26;61.63;100953.97;5063977;28;66949;-43
2024/01/23 09:15:05;;;;;;;9.00;7.03;;;;;;;33.31;61.26;100959.53;5060870;28;69977;-50
2024/01/23 09:17:37;;;;;;;9.18;7.20;;;;;;;33.19;60.66;100955.97;5059780;28;66274;-43
2024/01/23 09:20:07;;;;;;;;;;;;;;;32.90;61.64;100955.78;5047280;28;70249;-41
2024/01/23 09:22:39;;;;;;;12.48;7.50;;;;;;;32.91;61.76;100956.59;5039821;28;66103;-41
2024/01/23 09:25:10;;;;;;;19.55;7.28;;;;;;;32.85;61.86;100961.06;5028903;28;69459;-41
2024/01/23 09:27:40;;;;;;;14.93;6.95;;;;;;;32.80;62.15;100960.94;5028808;28;66639;-42
2024/01/23 09:30:20;;;;;;;15.25;8.10;;;;;;;32.76;62.13;100964.34;5056234;28;70191;-42
2024/01/23 09:32:58;;;;;;;8.82;7.32;;;;;;;32.73;62.35;100965.63;5054138;28;66124;-41
2024/01/23 09:35:32;;;;;;;14.35;7.80;;;;;;;32.68;62.45;100968.19;5040593;28;70870;-41
2024/01/23 09:38:03;;;;;;;14.52;8.13;;;;;;;32.67;62.86;100978.25;5040363;28;65573;-41
2024/01/23 09:40:33;;;;;;;14.10;8.30;;;;;;;32.64;62.97;100983.31;5051420;28;70949;-42
2024/01/23 09:43:05;;;;;;;14.00;9.05;;;;;;;32.58;62.99;100978.81;5037390;28;65743;-42
2024/01/23 09:45:40;;;;;;;12.25;8.63;;;;;;;32.51;63.16;100978.06;5038872;28;69056;-41
2024/01/23 09:48:11;;;;;;;17.25;10.82;;;;;;;32.50;63.34;100979.94;5054649;28;67231;-40
2024/01/23 09:50:45;;;;;;;11.98;10.15;;;;;;;32.56;63.62;100997.22;5040377;28;70111;-41
2024/01/23 09:53:17;;;;;;;18.38;10.20;;;;;;;32.51;63.80;100999.78;5039013;28;66533;-41
2024/01/23 09:55:48;;;;;;;18.17;10.85;;;;;;;32.55;63.91;101001.00;5031752;28;70472;-42
2024/01/23 09:58:20;;;;;;;17.27;10.02;;;;;;;32.46;63.93;100995.88;5035974;28;66477;-47
2024/01/23 10:00:53;;;;;;;12.68;10.38;;;;;;;32.54;64.23;101010.19;5039907;28;70565;-41
2024/01/23 10:03:26;;;;;;;11.65;9.55;;;;;;;32.49;64.11;101010.88;5040513;28;66592;-41
2024/01/23 10:05:57;;;;;;;14.52;10.25;;;;;;;32.47;64.08;101015.72;5039865;28;69754;-41
2024/01/23 10:08:29;;;;;;;24.23;10.10;;;;;;;32.49;64.38;101013.59;5040846;28;66625;-42
2024/01/23 10:11:01;;;;;;;21.15;11.30;;;;;;;32.47;64.15;101019.25;5039308;28;69671;-42
2024/01/23 10:13:32;;;;;;;15.07;10.10;;;;;;;32.47;64.70;101027.38;5039227;28;66535;-42
2024/01/23 10:16:03;;;;;;;17.40;9.23;;;;;;;32.47;64.71;101021.13;5051958;28;70959;-40
2024/01/23 10:18:33;;;;;;;15.57;10.43;;;;;;;32.45;64.47;101024.03;5039304;28;65324;-42
2024/01/23 10:21:04;;;;;;;21.90;9.80;;;;;;;32.46;64.48;101027.63;5039682;28;70450;-42
2024/01/23 10:23:35;;;;;;;17.13;9.17;;;;;;;32.41;64.82;101022.03;5039041;28;66766;-41
2024/01/23 10:26:08;;;;;;;9.40;8.33;;;;;;;32.44;65.07;101044.09;5028748;28;70003;-48
2024/01/23 10:28:42;;;;;;;10.85;8.65;;;;;;;32.47;64.93;101042.84;5031939;28;66320;-41
2024/01/23 10:31:13;;;;;;;12.55;8.68;;;;;;;32.43;65.19;101047.88;5026523;28;68225;-42
2024/01/23 10:33:45;;;;;;;24.40;9.45;;;;;;;31.74;65.04;100935.09;5039396;28;65268;-43
2024/01/23 10:36:16;;;;;;;;;;;;;;;32.31;65.64;101049.69;5055117;28;69056;-40
2024/01/23 10:38:50;;;;;;;16.90;9.13;;;;;;;32.39;65.36;101057.53;5072673;27;65723;-41
2024/01/23 10:41:23;;;;;;;17.42;9.43;;;;;;;32.30;65.38;101037.19;5040384;28;70233;-41
2024/01/23 10:43:56;;;;;;;14.30;9.05;;;;;;;32.36;65.44;101047.13;5052044;28;65776;-43
2024/01/23 10:46:31;;;;;;;18.15;9.30;;;;;;;32.02;65.37;100992.41;5053153;28;68594;-40
2024/01/23 10:49:03;;;;;;;15.35;9.43;;;;;;;32.40;65.65;101058.34;5061111;28;66490;-41
2024/01/23 10:51:37;;;;;;;14.90;9.97;;;;;;;32.05;65.71;101012.81;5046781;28;69918;-41
2024/01/23 10:54:13;;;;;;;16.83;10.00;;;;;;;32.32;65.87;101045.94;5059685;28;66620;-43
2024/01/23 10:56:45;;;;;;;16.13;8.88;;;;;;;32.38;65.80;101068.63;5075036;27;70398;-41
2024/01/23 10:59:17;;;;;;;;;;;;;;;32.23;66.16;101066.28;5051244;28;65997;-41
2024/01/23 11:01:55;;;;;;;14.98;9.38;;;;;;;32.37;65.96;101073.22;5042448;28;70218;-42
2024/01/23 11:04:26;;;;;;;17.85;9.50;;;;;;;32.38;65.74;101072.19;5043597;28;65519;-42
2024/01/23 11:07:10;;;;;;;17.95;9.00;;;;;;;31.96;65.36;101009.59;5043413;28;70125;-40
2024/01/23 11:10:02;;;;;;;16.15;9.20;;;;;;;32.36;65.61;101082.41;5046604;28;66292;-43
2024/01/23 11:12:58;;;;;;;16.05;8.40;;;;;;;32.31;65.56;101084.16;5039597;28;70238;-41
2024/01/23 11:15:29;;;;;;;19.75;8.90;;;;;;;32.33;65.89;101091.03;5051452;28;67216;-42
2024/01/23 11:18:25;;;;;;;27.35;9.70;;;;;;;32.28;65.93;101091.69;5053785;28;69620;-41
2024/01/23 11:21:05;;;;;;;22.88;8.95;;;;;;;32.31;65.92;101093.13;5043788;28;66549;-43
2024/01/23 11:23:45;;;;;;;16.02;8.82;;;;;;;31.92;65.99;101034.66;5043639;28;69579;-42
2024/01/23 11:26:19;;;;;;;16.85;8.57;;;;;;;32.19;66.17;101086.78;5041931;28;66008;-43
2024/01/23 11:29:05;;;;;;;22.63;8.75;;;;;;;31.72;66.33;101024.78;5044623;28;70758;-43
2024/01/23 11:31:51;;;;;;;33.22;11.40;;;;;;;32.22;66.38;101110.75;5043669;28;65298;-41
2024/01/23 11:34:27;;;;;;;32.03;11.98;;;;;;;32.26;66.52;101118.25;5040076;28;70225;-42
2024/01/23 11:36:58;;;;;;;26.08;12.63;;;;;;;32.24;66.44;101111.38;5043442;28;66192;-42
2024/01/23 11:39:34;;;;;;;26.27;12.30;;;;;;;31.53;66.63;101010.34;5038366;28;71082;-42